Time;durP1;ratioP1;P1;durP2;ratioP2;P2;SDS_P1;SDS_P2;PMS_P1;PMS_P2;Temp;Humidity;BMP_temperature;BMP_pressure;BME280_temperature;BME280_humidity;BME280_pressure;Samples;Min_cycle;Max_cycle;Signal;HPM_P1;HPM_P2
2023/08/08 00:02:36;;;;;;;0.90;0.60;;;;;;;11.48;100.00;98058.25;18442040;32;20103;-59
2023/08/08 00:12:39;;;;;;;6.83;1.00;;;;;;;11.40;100.00;98039.81;18427332;32;20133;-58
2023/08/08 00:22:42;;;;;;;1.13;0.70;;;;;;;11.34;100.00;98036.25;18427041;32;20053;-58
2023/08/08 00:32:45;;;;;;;1.30;0.80;;;;;;;11.30;100.00;98027.03;18440245;32;20053;-58
2023/08/08 00:42:48;;;;;;;2.53;0.70;;;;;;;11.26;100.00;98023.22;18440024;32;20393;-58
2023/08/08 00:52:52;;;;;;;0.83;0.63;;;;;;;11.13;100.00;98019.13;18424685;32;20463;-59
2023/08/08 01:02:55;;;;;;;1.40;0.70;;;;;;;11.00;100.00;98019.59;18430780;32;20077;-59
2023/08/08 01:13:09;;;;;;;2.00;0.90;;;;;;;10.93;100.00;98010.94;18437629;32;20074;-59
2023/08/08 01:23:27;;;;;;;3.30;0.90;;;;;;;10.82;100.00;98000.03;18437368;32;20105;-58
2023/08/08 01:33:30;;;;;;;1.57;0.97;;;;;;;10.83;100.00;98004.37;18436657;32;20435;-58
2023/08/08 01:43:33;;;;;;;2.23;0.90;;;;;;;10.75;100.00;98001.38;18436185;32;20373;-59
2023/08/08 01:53:37;;;;;;;1.40;1.00;;;;;;;10.67;100.00;97994.56;18431907;32;20053;-59
2023/08/08 02:03:40;;;;;;;2.90;0.60;;;;;;;10.62;100.00;97994.53;18418314;32;20080;-58
2023/08/08 02:13:44;;;;;;;1.97;0.90;;;;;;;10.58;100.00;97998.84;18419652;32;20429;-59
2023/08/08 02:23:48;;;;;;;1.97;0.87;;;;;;;10.60;100.00;97992.09;18433475;32;20109;-59
2023/08/08 02:33:51;;;;;;;0.80;0.53;;;;;;;10.62;100.00;97976.44;18432984;32;20061;-59
2023/08/08 02:43:54;;;;;;;1.30;0.80;;;;;;;10.63;100.00;97985.34;18418186;32;20061;-59
2023/08/08 02:53:57;;;;;;;5.43;0.70;;;;;;;10.54;100.00;97997.72;18431502;32;20440;-59
2023/08/08 03:04:00;;;;;;;1.83;0.90;;;;;;;10.55;100.00;97991.25;18431398;32;20092;-59
2023/08/08 03:14:03;;;;;;;0.93;0.50;;;;;;;10.50;100.00;97990.16;18431623;32;20066;-59
2023/08/08 03:24:06;;;;;;;1.83;0.70;;;;;;;10.48;100.00;97986.91;18432282;32;20358;-59
2023/08/08 03:34:09;;;;;;;1.90;0.90;;;;;;;10.53;100.00;98001.53;18430162;32;20045;-58
2023/08/08 03:44:13;;;;;;;1.20;0.80;;;;;;;10.50;100.00;97994.75;18436636;32;20057;-59
2023/08/08 03:54:18;;;;;;;2.47;0.93;;;;;;;10.41;100.00;97990.91;18442288;32;20073;-59
2023/08/08 04:04:21;;;;;;;4.63;0.70;;;;;;;10.38;100.00;98004.94;18441849;32;20066;-59
2023/08/08 04:14:25;;;;;;;1.30;0.90;;;;;;;10.23;100.00;97992.12;18441674;32;20097;-58
2023/08/08 04:24:28;;;;;;;0.97;0.80;;;;;;;10.18;100.00;97996.41;18440900;32;20062;-59
2023/08/08 04:34:31;;;;;;;1.77;1.07;;;;;;;10.18;100.00;98007.22;18440150;32;20493;-59
2023/08/08 04:44:34;;;;;;;1.57;1.03;;;;;;;10.26;100.00;98013.22;18439329;32;20101;-59
2023/08/08 04:54:39;;;;;;;1.20;0.83;;;;;;;10.32;100.00;98009.47;18360920;32;20073;-59
2023/08/08 05:04:43;;;;;;;1.90;1.07;;;;;;;10.42;100.00;98008.75;18374209;32;20450;-59
2023/08/08 05:14:55;;;;;;;1.90;0.90;;;;;;;10.67;100.00;98017.03;18373817;32;20506;-59
2023/08/08 05:25:05;;;;;;;1.57;0.80;;;;;;;10.87;100.00;98025.50;18373501;32;20054;-59
2023/08/08 05:35:11;;;;;;;1.07;0.80;;;;;;;11.10;100.00;98022.38;18372324;32;20117;-59
2023/08/08 05:45:16;;;;;;;2.25;0.82;;;;;;;11.33;100.00;98034.63;18371893;32;20061;-59
2023/08/08 05:55:20;;;;;;;1.05;0.80;;;;;;;11.61;100.00;98018.19;18369321;32;20352;-59
2023/08/08 06:05:24;;;;;;;0.80;0.65;;;;;;;11.82;100.00;98022.53;18370761;32;20096;-59
2023/08/08 06:15:28;;;;;;;1.55;0.82;;;;;;;12.27;100.00;98022.84;18370142;32;20154;-59
2023/08/08 06:25:31;;;;;;;1.12;0.65;;;;;;;12.75;100.00;98016.28;18362950;32;20077;-59
2023/08/08 06:35:36;;;;;;;1.47;1.03;;;;;;;13.20;100.00;98003.63;18355279;32;20061;-59
2023/08/08 06:45:38;;;;;;;1.50;0.90;;;;;;;13.46;100.00;98023.34;18367359;32;20077;-59
2023/08/08 06:55:41;;;;;;;1.80;1.20;;;;;;;13.78;100.00;98015.81;18418059;32;20057;-59
2023/08/08 07:05:44;;;;;;;1.02;0.80;;;;;;;14.12;100.00;98013.09;18430644;32;20068;-59
2023/08/08 07:15:47;;;;;;;2.28;1.00;;;;;;;14.37;100.00;98013.97;18431165;32;20107;-59
2023/08/08 07:25:51;;;;;;;1.12;0.70;;;;;;;14.80;100.00;98011.41;18416883;32;20106;-59
2023/08/08 07:35:57;;;;;;;2.42;1.27;;;;;;;15.22;100.00;98012.53;18417067;32;20440;-60
2023/08/08 07:46:00;;;;;;;1.90;0.80;;;;;;;15.63;100.00;98010.34;18403072;32;20095;-59
2023/08/08 07:56:03;;;;;;;1.48;0.77;;;;;;;15.83;100.00;98007.38;18430165;32;20057;-59
2023/08/08 08:06:06;;;;;;;1.57;0.97;;;;;;;16.08;100.00;98000.69;18429340;32;20079;-59
2023/08/08 08:16:09;;;;;;;1.70;0.90;;;;;;;16.33;100.00;97995.09;18417218;32;20066;-59
2023/08/08 08:26:12;;;;;;;1.13;0.80;;;;;;;16.63;100.00;97985.53;18440158;32;20077;-60
2023/08/08 08:36:16;;;;;;;1.33;0.80;;;;;;;17.12;100.00;97988.72;18440213;32;20065;-59
2023/08/08 08:46:22;;;;;;;2.13;1.00;;;;;;;17.66;100.00;97994.34;18439150;32;20087;-59
2023/08/08 08:56:26;;;;;;;1.02;0.50;;;;;;;18.27;100.00;97994.06;18439478;32;20366;-59
2023/08/08 09:06:31;;;;;;;1.23;0.65;;;;;;;18.73;100.00;97981.87;18438492;32;20370;-59
2023/08/08 09:16:35;;;;;;;0.82;0.52;;;;;;;19.16;100.00;97985.91;18423554;32;20061;-59
2023/08/08 09:26:43;;;;;;;2.05;0.88;;;;;;;19.64;100.00;97979.53;18436518;32;20361;-59
2023/08/08 09:36:51;;;;;;;0.90;0.55;;;;;;;19.90;100.00;97986.19;18422876;32;20057;-59
2023/08/08 09:46:55;;;;;;;2.33;0.73;;;;;;;20.13;98.24;97981.28;18421099;32;20365;-59
2023/08/08 09:56:59;;;;;;;1.08;0.73;;;;;;;20.28;86.84;97964.31;18435173;32;20091;-59
2023/08/08 10:07:03;;;;;;;1.08;0.75;;;;;;;20.64;90.62;97951.28;18420512;32;20101;-59
2023/08/08 10:17:07;;;;;;;1.10;0.65;;;;;;;20.92;94.91;97943.41;18433883;32;20049;-59
2023/08/08 10:27:11;;;;;;;0.95;0.60;;;;;;;21.30;75.35;97941.72;18406859;32;20076;-59
2023/08/08 10:37:17;;;;;;;1.37;0.60;;;;;;;21.52;74.18;97928.78;18418973;32;20105;-59
2023/08/08 10:47:25;;;;;;;1.00;0.60;;;;;;;21.37;69.06;97921.94;18432155;32;20064;-59
2023/08/08 10:57:31;;;;;;;0.82;0.35;;;;;;;21.43;72.94;97939.84;18432014;32;20089;-59
2023/08/08 11:07:37;;;;;;;1.83;0.52;;;;;;;21.41;73.48;97939.38;18424742;32;20095;-59
2023/08/08 11:17:40;;;;;;;1.10;0.57;;;;;;;21.60;72.47;97928.75;18431024;32;20101;-59
2023/08/08 11:27:53;;;;;;;1.42;0.70;;;;;;;21.81;71.48;97933.41;18403994;32;20099;-59
2023/08/08 11:37:58;;;;;;;0.60;0.43;;;;;;;21.90;72.91;97936.06;18416501;32;20062;-59
2023/08/08 11:48:05;;;;;;;0.37;0.35;;;;;;;21.82;68.20;97933.06;18421057;32;20061;-59
2023/08/08 11:58:14;;;;;;;0.88;0.50;;;;;;;21.95;69.02;97927.63;18442153;32;20062;-58
2023/08/08 12:08:21;;;;;;;1.90;0.70;;;;;;;22.34;64.85;97934.53;18423422;32;20080;-59
2023/08/08 12:18:24;;;;;;;1.17;0.68;;;;;;;22.67;65.92;97908.84;18441671;32;20052;-59
2023/08/08 12:28:28;;;;;;;2.12;0.57;;;;;;;23.09;67.67;97927.09;18413593;32;20077;-59
2023/08/08 12:38:31;;;;;;;1.30;0.62;;;;;;;23.58;57.51;97926.19;18425949;32;20445;-59
2023/08/08 12:48:34;;;;;;;0.70;0.47;;;;;;;23.94;56.22;97924.47;18438995;32;20053;-59
2023/08/08 12:58:37;;;;;;;2.08;0.73;;;;;;;23.99;57.05;97926.19;18425444;32;20081;-59
2023/08/08 13:08:40;;;;;;;1.05;0.55;;;;;;;23.58;56.12;97901.34;18424486;32;20084;-59
2023/08/08 13:18:43;;;;;;;2.20;0.50;;;;;;;23.76;54.62;97901.88;18423930;32;20105;-59
2023/08/08 13:28:46;;;;;;;1.42;0.70;;;;;;;24.56;63.88;97898.41;18437047;32;20061;-59
2023/08/08 13:38:49;;;;;;;1.10;0.40;;;;;;;25.57;58.22;97897.97;18436474;32;20163;-59
2023/08/08 13:48:57;;;;;;;1.48;0.73;;;;;;;26.20;51.21;97900.41;18421998;32;20072;-60
2023/08/08 13:59:01;;;;;;;1.17;0.80;;;;;;;26.55;52.67;97893.88;18435584;32;20050;-59
2023/08/08 14:09:04;;;;;;;1.33;0.80;;;;;;;27.00;51.31;97896.19;18420387;32;20092;-59
2023/08/08 14:19:09;;;;;;;1.33;0.60;;;;;;;27.44;48.49;97900.38;18433852;32;20098;-60
2023/08/08 14:29:13;;;;;;;1.98;0.82;;;;;;;27.76;42.25;97897.19;18433299;32;20065;-60
2023/08/08 14:39:16;;;;;;;1.95;0.65;;;;;;;27.81;40.59;97882.97;18418859;32;20372;-59
2023/08/08 14:49:19;;;;;;;1.77;0.90;;;;;;;27.68;41.10;97880.44;18405303;32;20110;-60
2023/08/08 14:59:23;;;;;;;1.20;0.73;;;;;;;27.97;42.96;97877.16;18417919;32;20117;-60
2023/08/08 15:09:27;;;;;;;1.95;0.95;;;;;;;28.20;41.71;97879.78;18431606;32;20056;-59
2023/08/08 15:19:34;;;;;;;2.30;0.85;;;;;;;26.62;43.75;97868.22;18430629;32;20054;-59
2023/08/08 15:29:37;;;;;;;2.00;0.90;;;;;;;25.79;41.98;97865.97;18430669;32;20099;-59
2023/08/08 15:39:41;;;;;;;2.12;0.75;;;;;;;24.90;45.84;97860.97;18410110;32;20076;-59
2023/08/08 15:49:44;;;;;;;2.20;0.70;;;;;;;24.51;44.77;97858.81;18429795;32;20092;-59
2023/08/08 15:59:48;;;;;;;1.65;0.65;;;;;;;24.37;46.99;97851.00;18416582;32;20381;-59
2023/08/08 16:09:51;;;;;;;1.05;0.70;;;;;;;23.90;48.49;97857.31;18429701;32;20080;-59
2023/08/08 16:19:55;;;;;;;2.03;0.80;;;;;;;23.57;48.66;97846.50;18430048;32;20068;-59
2023/08/08 16:29:59;;;;;;;1.35;0.75;;;;;;;23.10;47.99;97842.38;18415310;32;20053;-59
2023/08/08 16:40:04;;;;;;;1.77;0.70;;;;;;;23.23;46.84;97838.47;18439979;32;20095;-59
2023/08/08 16:50:08;;;;;;;1.58;0.75;;;;;;;22.74;50.71;97846.81;18424871;32;20061;-59
2023/08/08 17:00:14;;;;;;;1.30;0.50;;;;;;;22.99;54.06;97848.38;18425226;32;20090;-59
2023/08/08 17:10:18;;;;;;;2.03;0.75;;;;;;;22.49;50.67;97844.87;18438937;32;20065;-59
2023/08/08 17:20:21;;;;;;;2.10;0.70;;;;;;;21.95;57.29;97845.84;18423609;32;20061;-59
2023/08/08 17:30:25;;;;;;;1.30;0.68;;;;;;;21.50;58.00;97846.56;18436784;32;20095;-59
2023/08/08 17:40:28;;;;;;;3.20;0.60;;;;;;;21.02;62.86;97847.94;18422941;32;20103;-59
2023/08/08 17:50:31;;;;;;;0.73;0.50;;;;;;;20.59;65.98;97853.34;18435008;32;20067;-59
2023/08/08 18:00:34;;;;;;;1.80;1.10;;;;;;;20.27;69.73;97852.06;18435360;32;20070;-59
2023/08/08 18:10:41;;;;;;;2.50;1.42;;;;;;;19.99;75.28;97860.72;18420492;32;20389;-59
2023/08/08 18:20:46;;;;;;;2.92;1.60;;;;;;;19.69;86.43;97855.09;18434483;32;20095;-59
2023/08/08 18:30:48;;;;;;;2.77;0.90;;;;;;;19.38;100.00;97864.34;18419312;32;20445;-59
2023/08/08 18:40:52;;;;;;;1.27;1.00;;;;;;;19.05;100.00;97864.00;18432944;32;20058;-58
2023/08/08 18:50:54;;;;;;;1.35;0.62;;;;;;;18.67;100.00;97848.12;18418162;32;20056;-59
2023/08/08 19:00:57;;;;;;;1.57;0.77;;;;;;;18.26;100.00;97839.94;18418238;32;20053;-59
2023/08/08 19:11:02;;;;;;;3.17;1.03;;;;;;;17.86;100.00;97837.16;18431454;32;20411;-58
2023/08/08 19:21:05;;;;;;;1.65;1.00;;;;;;;17.52;100.00;97841.31;18430839;32;20073;-59
2023/08/08 19:31:08;;;;;;;2.30;1.30;;;;;;;17.24;100.00;97837.91;18430762;32;20065;-59
2023/08/08 19:41:11;;;;;;;2.10;1.30;;;;;;;17.00;100.00;97854.56;18403702;32;20397;-58
2023/08/08 19:51:15;;;;;;;1.85;1.15;;;;;;;16.77;100.00;97858.03;18430008;32;20045;-58
2023/08/08 20:01:23;;;;;;;1.27;0.90;;;;;;;16.60;100.00;97853.19;18430181;32;20096;-58
2023/08/08 20:11:29;;;;;;;1.70;0.85;;;;;;;16.49;100.00;97851.00;18438065;32;20065;-58
2023/08/08 20:21:34;;;;;;;1.80;0.68;;;;;;;16.36;100.00;97847.12;18441262;32;20436;-58
2023/08/08 20:31:40;;;;;;;1.85;0.70;;;;;;;16.21;100.00;97854.53;18441202;32;20053;-58
2023/08/08 20:41:45;;;;;;;2.22;1.15;;;;;;;16.11;100.00;97846.53;18440400;32;20434;-58
2023/08/08 20:51:49;;;;;;;2.37;1.00;;;;;;;16.05;100.00;97845.81;18439369;32;20062;-58
2023/08/08 21:01:54;;;;;;;1.30;0.95;;;;;;;15.99;100.00;97840.75;18439158;32;20428;-58
2023/08/08 21:11:57;;;;;;;;;;;;;;;15.92;100.00;97854.78;18424430;32;20052;-58
2023/08/08 21:22:00;;;;;;;1.40;1.00;;;;;;;15.92;100.00;97865.69;18437114;32;19953;-58
2023/08/08 21:32:04;;;;;;;2.27;1.17;;;;;;;15.87;100.00;97857.63;18437140;32;20053;-58
2023/08/08 21:42:07;;;;;;;2.15;0.90;;;;;;;15.80;100.00;97857.19;18409871;32;20098;-59
2023/08/08 21:52:09;;;;;;;1.92;1.08;;;;;;;15.70;100.00;97848.03;18435567;32;20060;-59
2023/08/08 22:02:13;;;;;;;1.80;1.10;;;;;;;15.65;100.00;97845.41;18428856;32;20113;-59
2023/08/08 22:12:16;;;;;;;1.30;0.80;;;;;;;15.66;100.00;97835.31;18434731;32;20067;-58
2023/08/08 22:22:21;;;;;;;2.00;1.00;;;;;;;15.63;100.00;97808.66;18434347;32;20119;-58
2023/08/08 22:32:25;;;;;;;1.90;1.13;;;;;;;15.62;100.00;97807.81;18433089;32;20117;-58
2023/08/08 22:42:30;;;;;;;2.40;1.12;;;;;;;15.62;100.00;97761.50;18432978;32;20385;-58
2023/08/08 22:52:33;;;;;;;1.17;0.90;;;;;;;15.57;100.00;97783.41;18432156;32;20068;-58
2023/08/08 23:02:36;;;;;;;1.60;1.00;;;;;;;15.59;100.00;97787.47;18432214;32;20069;-58
2023/08/08 23:12:39;;;;;;;1.87;1.17;;;;;;;15.56;100.00;97776.34;18431522;32;20457;-58
2023/08/08 23:22:42;;;;;;;1.42;1.05;;;;;;;15.46;100.00;97760.97;18417516;32;20464;-59
2023/08/08 23:32:45;;;;;;;1.50;0.90;;;;;;;15.40;100.00;97767.63;18430777;32;20053;-58
2023/08/08 23:42:55;;;;;;;1.55;0.93;;;;;;;15.36;100.00;97755.69;18434753;32;20474;-59
2023/08/08 23:52:58;;;;;;;1.10;0.90;;;;;;;15.32;100.00;97771.03;18442810;32;20412;-58
